createdAt,value
2018-08-03T00:00:46.230Z,23.50
2018-08-03T00:03:18.198Z,23.50
2018-08-03T00:05:49.884Z,23.50
2018-08-03T00:08:21.633Z,23.50
2018-08-03T00:10:53.569Z,23.50
2018-08-03T00:13:25.339Z,23.50
2018-08-03T00:15:57.241Z,23.50
2018-08-03T00:18:28.905Z,23.50
2018-08-03T00:21:00.810Z,23.40
2018-08-03T00:23:32.723Z,23.40
2018-08-03T00:26:04.487Z,23.30
2018-08-03T00:28:36.221Z,23.30
2018-08-03T00:31:08.153Z,23.20
2018-08-03T00:33:39.925Z,23.20
2018-08-03T00:36:11.798Z,23.10
2018-08-03T00:38:43.621Z,23.10
2018-08-03T00:41:15.650Z,23.00
2018-08-03T00:43:47.273Z,22.80
2018-08-03T00:46:19.185Z,22.80
2018-08-03T00:48:51.018Z,22.70
2018-08-03T00:51:22.895Z,22.70
2018-08-03T00:53:54.620Z,22.60
2018-08-03T00:56:26.537Z,22.60
2018-08-03T01:01:29.526Z,22.50
2018-08-03T01:04:01.149Z,22.40
2018-08-03T01:06:33.014Z,22.40
2018-08-03T01:09:06.877Z,22.30
2018-08-03T01:11:38.783Z,22.40
2018-08-03T01:14:11.197Z,22.30
2018-08-03T01:16:43.685Z,22.30
2018-08-03T01:19:16.009Z,22.20
2018-08-03T01:21:47.769Z,22.30
2018-08-03T01:24:20.241Z,22.30
2018-08-03T01:26:52.069Z,22.30
2018-08-03T01:29:23.884Z,22.30
2018-08-03T01:31:55.535Z,22.30
2018-08-03T01:34:27.178Z,22.30
2018-08-03T01:36:58.953Z,22.20
2018-08-03T01:39:30.711Z,22.20
2018-08-03T01:42:02.451Z,22.20
2018-08-03T01:44:34.229Z,22.10
2018-08-03T01:47:05.862Z,22.00
2018-08-03T01:49:37.801Z,22.00
2018-08-03T01:52:09.772Z,22.00
2018-08-03T01:54:41.542Z,22.00
2018-08-03T01:57:13.192Z,21.90
2018-08-03T01:59:44.943Z,21.90
2018-08-03T02:02:16.709Z,21.90
2018-08-03T02:04:48.383Z,21.80
2018-08-03T02:07:20.115Z,21.90
2018-08-03T02:09:51.877Z,21.80
2018-08-03T02:12:23.641Z,21.80
2018-08-03T02:14:55.418Z,21.80
2018-08-03T02:17:27.054Z,21.80
2018-08-03T02:19:58.910Z,21.80
2018-08-03T02:22:30.870Z,21.80
2018-08-03T02:25:02.544Z,21.60
2018-08-03T02:27:34.384Z,21.60
2018-08-03T02:30:06.773Z,21.50
2018-08-03T02:32:38.654Z,21.50
2018-08-03T02:35:10.534Z,21.50
2018-08-03T02:37:42.153Z,21.50
2018-08-03T02:40:13.973Z,21.60
2018-08-03T02:42:45.809Z,21.60
2018-08-03T02:45:17.565Z,21.60
2018-08-03T02:47:49.296Z,21.60
2018-08-03T02:50:21.178Z,21.60
2018-08-03T02:52:53.219Z,21.60
2018-08-03T02:55:24.975Z,21.50
2018-08-03T02:57:56.660Z,21.40
2018-08-03T03:00:28.691Z,21.30
2018-08-03T03:03:00.598Z,21.30
2018-08-03T03:05:32.473Z,21.20
2018-08-03T03:08:04.301Z,21.30
2018-08-03T03:10:36.133Z,21.20
2018-08-03T03:13:07.988Z,21.10
2018-08-03T03:15:39.907Z,21.10
2018-08-03T03:18:11.617Z,21.00
2018-08-03T03:20:43.368Z,20.90
2018-08-03T03:23:15.232Z,20.80
2018-08-03T03:25:47.144Z,20.80
2018-08-03T03:28:18.825Z,20.80
2018-08-03T03:30:50.664Z,20.90
2018-08-03T03:33:22.283Z,20.90
2018-08-03T03:35:54.036Z,20.90
2018-08-03T03:38:25.892Z,20.90
2018-08-03T03:40:57.592Z,20.90
2018-08-03T03:43:29.330Z,20.90
2018-08-03T03:46:01.263Z,20.90
2018-08-03T03:48:32.937Z,20.90
2018-08-03T03:51:04.845Z,20.80
2018-08-03T03:53:36.644Z,20.80
2018-08-03T03:56:08.411Z,20.80
2018-08-03T03:58:40.090Z,20.80
2018-08-03T04:01:11.986Z,20.80
2018-08-03T04:03:43.789Z,20.70
2018-08-03T04:06:15.570Z,20.70
2018-08-03T04:08:47.362Z,20.60
2018-08-03T04:11:19.085Z,20.70
2018-08-03T04:13:51.066Z,20.70
2018-08-03T04:16:22.602Z,20.70
2018-08-03T04:18:54.668Z,20.70
2018-08-03T04:21:26.436Z,20.80
2018-08-03T04:23:58.097Z,20.70
2018-08-03T04:26:29.920Z,20.70
2018-08-03T04:29:01.685Z,20.50
2018-08-03T04:31:33.377Z,20.40
2018-08-03T04:34:05.203Z,20.40
2018-08-03T04:36:36.889Z,20.50
2018-08-03T04:39:09.590Z,20.50
2018-08-03T04:41:41.208Z,20.60
2018-08-03T04:44:12.978Z,20.60
2018-08-03T04:46:44.759Z,20.70
2018-08-03T04:49:16.482Z,20.80
2018-08-03T04:51:48.171Z,20.90
2018-08-03T04:54:19.880Z,20.90
2018-08-03T04:56:51.549Z,21.00
2018-08-03T04:59:23.297Z,21.00
2018-08-03T05:01:54.978Z,21.10
2018-08-03T05:04:26.663Z,21.20
2018-08-03T05:06:58.370Z,21.20
2018-08-03T05:09:30.049Z,21.30
2018-08-03T05:12:01.910Z,21.30
2018-08-03T05:14:33.643Z,21.40
2018-08-03T05:17:05.391Z,21.40
2018-08-03T05:19:37.035Z,21.40
2018-08-03T05:22:08.818Z,21.50
2018-08-03T05:24:40.484Z,21.60
2018-08-03T05:27:12.238Z,21.60
2018-08-03T05:29:44.115Z,21.70
2018-08-03T05:32:15.906Z,21.70
2018-08-03T05:34:47.825Z,21.80
2018-08-03T05:37:19.731Z,21.80
2018-08-03T05:39:51.344Z,21.90
2018-08-03T05:42:23.081Z,22.00
2018-08-03T05:44:54.857Z,22.00
2018-08-03T05:47:26.615Z,22.10
2018-08-03T05:49:58.403Z,22.20
2018-08-03T05:52:30.198Z,22.30
2018-08-03T05:55:01.944Z,22.40
2018-08-03T05:57:33.777Z,22.40
2018-08-03T06:00:05.840Z,22.50
2018-08-03T06:02:37.677Z,22.50
2018-08-03T06:05:10.206Z,22.60
2018-08-03T06:07:42.119Z,22.70
2018-08-03T06:10:14.093Z,22.70
2018-08-03T06:12:45.758Z,22.80
2018-08-03T06:15:17.623Z,22.90
2018-08-03T06:17:49.488Z,23.00
2018-08-03T06:20:21.246Z,23.00
2018-08-03T06:22:53.004Z,23.10
2018-08-03T06:25:24.819Z,23.20
2018-08-03T06:27:56.587Z,23.30
2018-08-03T06:30:28.410Z,23.40
2018-08-03T06:33:00.041Z,23.50
2018-08-03T06:35:31.875Z,23.60
2018-08-03T06:38:03.719Z,23.60
2018-08-03T06:40:35.540Z,23.70
2018-08-03T06:43:07.472Z,23.80
2018-08-03T06:45:39.423Z,23.90
2018-08-03T06:48:11.110Z,24.00
2018-08-03T06:50:42.968Z,24.10
2018-08-03T06:53:14.699Z,24.20
2018-08-03T06:55:48.869Z,24.30
2018-08-03T06:58:20.916Z,24.40
2018-08-03T07:00:52.568Z,24.50
2018-08-03T07:03:24.314Z,24.60
2018-08-03T07:05:56.323Z,24.70
2018-08-03T07:08:28.210Z,24.90
2018-08-03T07:11:00.051Z,25.00
2018-08-03T07:13:31.944Z,25.00
2018-08-03T07:16:03.629Z,25.20
2018-08-03T07:18:35.394Z,25.40
2018-08-03T07:21:07.270Z,25.50
2018-08-03T07:23:42.715Z,25.60
2018-08-03T07:26:15.094Z,25.70
2018-08-03T07:28:46.853Z,25.80
2018-08-03T07:31:18.685Z,25.90
2018-08-03T07:33:50.836Z,26.00
2018-08-03T07:36:22.707Z,26.10
2018-08-03T07:38:54.369Z,26.20
2018-08-03T07:41:26.129Z,26.30
2018-08-03T07:43:57.858Z,26.40
2018-08-03T07:46:29.678Z,26.60
2018-08-03T07:51:32.369Z,26.90
2018-08-03T07:54:04.195Z,27.00
2018-08-03T07:56:36.198Z,27.20
2018-08-03T07:59:07.849Z,27.30
2018-08-03T08:01:39.565Z,27.40
2018-08-03T08:04:11.526Z,27.50
2018-08-03T08:06:43.249Z,27.60
2018-08-03T08:09:14.888Z,27.70
2018-08-03T08:11:46.708Z,27.80
2018-08-03T08:14:18.377Z,28.00
2018-08-03T08:16:50.293Z,28.10
2018-08-03T08:19:22.013Z,28.30
2018-08-03T08:21:53.889Z,28.40
2018-08-03T08:24:26.693Z,28.50
2018-08-03T08:26:58.590Z,28.60
2018-08-03T08:29:30.598Z,28.70
2018-08-03T08:32:02.366Z,28.80
2018-08-03T08:34:34.090Z,28.90
2018-08-03T08:37:06.148Z,29.00
2018-08-03T08:39:37.926Z,29.00
2018-08-03T08:42:09.780Z,29.00
2018-08-03T08:44:41.537Z,29.10
2018-08-03T08:47:13.379Z,29.20
2018-08-03T08:49:45.161Z,29.30
2018-08-03T08:52:17.036Z,29.30
2018-08-03T08:54:48.823Z,29.40
2018-08-03T08:59:51.682Z,29.70
2018-08-03T09:02:23.419Z,29.70
2018-08-03T09:04:55.099Z,29.80
2018-08-03T09:07:26.937Z,29.90
2018-08-03T09:09:58.608Z,29.90
2018-08-03T09:12:30.604Z,30.00
2018-08-03T09:15:02.564Z,30.10
2018-08-03T09:17:34.476Z,30.20
2018-08-03T09:20:06.805Z,30.30
2018-08-03T09:22:38.664Z,30.40
2018-08-03T09:25:10.328Z,30.50
2018-08-03T09:27:42.062Z,30.50
2018-08-03T09:30:13.886Z,30.60
2018-08-03T09:32:45.662Z,30.70
2018-08-03T09:35:17.432Z,30.80
2018-08-03T09:37:49.175Z,30.90
2018-08-03T09:40:20.941Z,30.90
2018-08-03T09:42:52.615Z,31.10
2018-08-03T09:45:24.552Z,31.20
2018-08-03T09:47:56.224Z,31.20
2018-08-03T09:50:27.992Z,31.30
2018-08-03T09:52:59.813Z,31.40
2018-08-03T09:55:31.633Z,31.50
2018-08-03T09:58:03.504Z,31.60
2018-08-03T10:00:40.145Z,31.70
2018-08-03T10:03:11.942Z,31.80
2018-08-03T10:08:14.882Z,31.80
2018-08-03T10:10:46.547Z,31.80
2018-08-03T10:13:18.225Z,31.90
2018-08-03T10:15:50.310Z,31.90
2018-08-03T10:18:22.133Z,32.00
2018-08-03T10:20:54.010Z,32.10
2018-08-03T10:23:25.771Z,32.20
2018-08-03T10:25:57.605Z,32.30
2018-08-03T10:28:29.414Z,32.40
2018-08-03T10:31:01.142Z,32.40
2018-08-03T10:33:33.086Z,32.50
2018-08-03T10:36:05.055Z,32.50
2018-08-03T10:38:36.904Z,32.60
2018-08-03T10:41:08.582Z,32.60
2018-08-03T10:43:40.573Z,32.70
2018-08-03T10:46:12.592Z,32.90
2018-08-03T10:48:44.564Z,33.00
2018-08-03T10:51:16.476Z,33.10
2018-08-03T10:53:48.308Z,33.10
2018-08-03T10:56:20.141Z,33.10
2018-08-03T10:58:52.325Z,33.20
2018-08-03T11:01:24.144Z,33.30
2018-08-03T11:03:55.954Z,33.40
2018-08-03T11:06:27.824Z,33.40
2018-08-03T11:08:59.603Z,33.50
2018-08-03T11:11:31.226Z,33.40
2018-08-03T11:14:02.967Z,33.50
2018-08-03T11:16:35.164Z,33.60
2018-08-03T11:19:07.149Z,33.50
2018-08-03T11:21:38.875Z,33.50
2018-08-03T11:24:10.626Z,33.60
2018-08-03T11:26:42.370Z,33.70
2018-08-03T11:29:14.184Z,33.70
2018-08-03T11:31:45.924Z,33.60
2018-08-03T11:34:17.648Z,33.30
2018-08-03T11:36:49.464Z,33.20
2018-08-03T11:39:21.094Z,33.00
2018-08-03T11:41:52.875Z,32.90
2018-08-03T11:44:24.636Z,33.00
2018-08-03T11:46:56.269Z,33.10
2018-08-03T11:49:28.108Z,33.30
2018-08-03T11:51:59.763Z,33.50
2018-08-03T11:54:31.544Z,33.60
2018-08-03T11:57:03.372Z,33.80
2018-08-03T11:59:35.245Z,33.90
2018-08-03T12:02:07.023Z,33.80
2018-08-03T12:04:38.870Z,33.80
2018-08-03T12:07:10.713Z,33.90
2018-08-03T12:09:42.532Z,34.10
2018-08-03T12:12:14.266Z,34.20
2018-08-03T12:14:46.004Z,34.40
2018-08-03T12:17:17.677Z,34.50
2018-08-03T12:19:49.473Z,34.40
2018-08-03T12:22:22.113Z,34.20
2018-08-03T12:24:53.778Z,34.10
2018-08-03T12:27:25.561Z,33.80
2018-08-03T12:29:57.299Z,33.60
2018-08-03T12:32:28.941Z,33.50
2018-08-03T12:35:00.897Z,33.40
2018-08-03T12:37:32.650Z,33.40
2018-08-03T12:40:04.617Z,33.50
2018-08-03T12:42:36.390Z,33.60
2018-08-03T12:45:08.159Z,33.70
2018-08-03T12:47:39.983Z,33.80
2018-08-03T12:50:11.764Z,33.90
2018-08-03T12:52:43.577Z,33.90
2018-08-03T12:55:15.282Z,33.90
2018-08-03T12:57:47.032Z,33.90
2018-08-03T13:00:18.701Z,34.10
2018-08-03T13:02:50.468Z,34.20
2018-08-03T13:05:22.139Z,34.30
2018-08-03T13:07:53.835Z,34.40
2018-08-03T13:10:25.712Z,34.40
2018-08-03T13:12:57.369Z,34.40
2018-08-03T13:15:29.164Z,34.50
2018-08-03T13:18:01.098Z,34.60
2018-08-03T13:20:32.765Z,34.80
2018-08-03T13:23:05.369Z,34.80
2018-08-03T13:25:37.119Z,34.80
2018-08-03T13:28:08.774Z,34.80
2018-08-03T13:30:40.761Z,34.80
2018-08-03T13:33:12.425Z,34.80
2018-08-03T13:35:44.259Z,34.80
2018-08-03T13:38:15.981Z,34.80
2018-08-03T13:40:47.772Z,34.80
2018-08-03T13:43:19.538Z,34.50
2018-08-03T13:45:51.253Z,34.40
2018-08-03T13:48:22.934Z,34.20
2018-08-03T13:50:54.816Z,33.90
2018-08-03T13:53:26.821Z,33.80
2018-08-03T13:55:58.709Z,33.70
2018-08-03T13:58:30.568Z,33.60
2018-08-03T14:01:18.457Z,33.70
2018-08-03T14:03:50.247Z,33.70
2018-08-03T14:06:22.178Z,33.70
2018-08-03T14:08:53.990Z,33.50
2018-08-03T14:11:25.682Z,33.40
2018-08-03T14:13:57.557Z,33.30
2018-08-03T14:16:29.462Z,33.20
2018-08-03T14:19:01.348Z,33.00
2018-08-03T14:21:33.097Z,33.00
2018-08-03T14:24:05.004Z,32.90
2018-08-03T14:26:36.734Z,33.00
2018-08-03T14:29:08.571Z,33.10
2018-08-03T14:31:40.608Z,33.30
2018-08-03T14:34:12.411Z,33.50
2018-08-03T14:36:44.286Z,33.60
2018-08-03T14:39:16.145Z,33.70
2018-08-03T14:41:47.930Z,33.80
2018-08-03T14:44:19.690Z,33.80
2018-08-03T14:46:51.326Z,33.90
2018-08-03T14:49:23.206Z,34.00
2018-08-03T14:51:54.964Z,34.00
2018-08-03T14:54:26.597Z,34.10
2018-08-03T14:56:58.482Z,34.10
2018-08-03T14:59:30.234Z,34.20
2018-08-03T15:02:02.076Z,34.30
2018-08-03T15:04:33.804Z,34.30
2018-08-03T15:07:05.720Z,34.40
2018-08-03T15:09:37.462Z,34.40
2018-08-03T15:12:09.388Z,34.40
2018-08-03T15:14:41.408Z,34.40
2018-08-03T15:17:13.139Z,34.40
2018-08-03T15:19:44.926Z,34.40
2018-08-03T15:22:16.741Z,34.40
2018-08-03T15:24:48.610Z,34.30
2018-08-03T15:27:20.266Z,34.20
2018-08-03T15:29:52.001Z,34.10
2018-08-03T15:32:23.690Z,34.10
2018-08-03T15:34:55.357Z,34.00
2018-08-03T15:37:27.238Z,34.00
2018-08-03T15:39:58.866Z,33.90
2018-08-03T15:42:30.720Z,33.90
2018-08-03T15:45:02.574Z,33.90
2018-08-03T15:47:34.366Z,33.80
2018-08-03T15:50:06.550Z,33.80
2018-08-03T15:52:38.351Z,33.70
2018-08-03T15:55:10.043Z,33.70
2018-08-03T15:57:42.524Z,33.60
2018-08-03T16:00:14.408Z,33.50
2018-08-03T16:02:46.257Z,33.40
2018-08-03T16:05:17.967Z,33.30
2018-08-03T16:07:49.629Z,33.20
2018-08-03T16:10:21.421Z,33.20
2018-08-03T16:12:53.389Z,33.20
2018-08-03T16:15:25.157Z,33.10
2018-08-03T16:17:56.894Z,33.10
2018-08-03T16:20:28.870Z,33.10
2018-08-03T16:23:00.523Z,33.20
2018-08-03T16:25:32.491Z,33.20
2018-08-03T16:28:04.468Z,33.20
2018-08-03T16:30:36.272Z,33.20
2018-08-03T16:33:08.069Z,33.20
2018-08-03T16:35:39.924Z,33.20
2018-08-03T16:38:11.853Z,33.10
2018-08-03T16:40:43.770Z,33.10
2018-08-03T16:43:15.514Z,33.10
2018-08-03T16:45:47.270Z,33.10
2018-08-03T16:48:19.035Z,33.10
2018-08-03T16:50:50.781Z,33.10
2018-08-03T16:53:22.618Z,33.10
2018-08-03T16:55:54.587Z,33.00
2018-08-03T16:58:26.287Z,33.00
2018-08-03T17:00:57.993Z,33.00
2018-08-03T17:03:29.688Z,33.00
2018-08-03T17:06:01.335Z,32.90
2018-08-03T17:08:33.071Z,32.90
2018-08-03T17:11:04.878Z,32.80
2018-08-03T17:13:36.602Z,32.70
2018-08-03T17:16:09.502Z,32.60
2018-08-03T17:18:41.259Z,32.40
2018-08-03T17:21:13.097Z,32.20
2018-08-03T17:23:45.003Z,32.10
2018-08-03T17:26:16.618Z,31.80
2018-08-03T17:28:48.366Z,31.60
2018-08-03T17:31:20.058Z,31.40
2018-08-03T17:33:51.656Z,31.30
2018-08-03T17:36:23.666Z,31.10
2018-08-03T17:38:55.501Z,31.00
2018-08-03T17:41:27.284Z,30.80
2018-08-03T17:43:59.010Z,30.70
2018-08-03T17:46:30.877Z,30.50
2018-08-03T17:49:02.549Z,30.40
2018-08-03T17:51:34.230Z,30.10
2018-08-03T17:54:06.060Z,30.00
2018-08-03T17:56:37.833Z,29.80
2018-08-03T17:59:09.605Z,29.60
2018-08-03T18:01:41.442Z,29.50
2018-08-03T18:04:13.226Z,29.40
2018-08-03T18:06:45.007Z,29.30
2018-08-03T18:09:16.809Z,29.20
2018-08-03T18:11:48.774Z,29.10
2018-08-03T18:14:20.596Z,29.10
2018-08-03T18:16:52.361Z,29.00
2018-08-03T18:21:55.153Z,28.80
2018-08-03T18:26:57.997Z,28.70
2018-08-03T18:29:29.709Z,28.60
2018-08-03T18:32:01.541Z,28.50
2018-08-03T18:34:33.511Z,28.50
2018-08-03T18:37:05.272Z,28.40
2018-08-03T18:39:36.932Z,28.30
2018-08-03T18:42:08.866Z,28.30
2018-08-03T18:44:40.830Z,28.20
2018-08-03T18:47:12.657Z,28.10
2018-08-03T18:49:44.370Z,27.90
2018-08-03T18:52:16.162Z,27.80
2018-08-03T18:54:47.989Z,27.70
2018-08-03T18:57:19.877Z,27.50
2018-08-03T18:59:51.467Z,27.40
2018-08-03T19:02:23.341Z,27.30
2018-08-03T19:04:55.148Z,27.20
2018-08-03T19:07:26.993Z,27.10
2018-08-03T19:09:58.913Z,27.10
2018-08-03T19:12:30.633Z,27.00
2018-08-03T19:15:02.393Z,26.90
2018-08-03T19:17:34.101Z,26.80
2018-08-03T19:20:06.523Z,26.80
2018-08-03T19:22:38.550Z,26.70
2018-08-03T19:25:10.329Z,26.60
2018-08-03T19:27:41.983Z,26.60
2018-08-03T19:30:13.758Z,26.50
2018-08-03T19:32:45.497Z,26.50
2018-08-03T19:35:17.358Z,26.40
2018-08-03T19:37:49.128Z,26.40
2018-08-03T19:40:20.870Z,26.30
2018-08-03T19:42:52.655Z,26.20
2018-08-03T19:45:24.573Z,26.20
2018-08-03T19:47:56.487Z,26.20
2018-08-03T19:50:28.257Z,26.10
2018-08-03T19:53:00.081Z,26.10
2018-08-03T19:55:32.019Z,26.10
2018-08-03T19:58:03.933Z,26.00
2018-08-03T20:00:35.564Z,26.00
2018-08-03T20:03:07.501Z,26.10
2018-08-03T20:05:39.416Z,26.00
2018-08-03T20:08:11.058Z,26.00
2018-08-03T20:10:43.093Z,26.00
2018-08-03T20:13:14.981Z,25.90
2018-08-03T20:15:46.836Z,25.80
2018-08-03T20:18:18.774Z,25.70
2018-08-03T20:20:50.494Z,25.70
2018-08-03T20:23:22.264Z,25.60
2018-08-03T20:25:54.201Z,25.50
2018-08-03T20:28:25.813Z,25.40
2018-08-03T20:30:57.595Z,25.30
2018-08-03T20:33:29.536Z,25.30
2018-08-03T20:36:01.405Z,25.30
2018-08-03T20:38:33.077Z,25.30
2018-08-03T20:41:04.836Z,25.20
2018-08-03T20:43:36.717Z,25.20
2018-08-03T20:46:08.449Z,25.10
2018-08-03T20:48:40.217Z,25.10
2018-08-03T20:51:12.149Z,25.10
2018-08-03T20:53:44.010Z,25.10
2018-08-03T20:56:15.820Z,25.10
2018-08-03T21:01:18.666Z,25.00
2018-08-03T21:03:50.560Z,25.00
2018-08-03T21:06:22.209Z,25.10
2018-08-03T21:08:53.978Z,25.10
2018-08-03T21:11:25.843Z,25.10
2018-08-03T21:13:57.620Z,25.20
2018-08-03T21:16:29.382Z,25.30
2018-08-03T21:19:01.399Z,25.20
2018-08-03T21:21:33.413Z,25.30
2018-08-03T21:26:36.620Z,25.20
2018-08-03T21:29:08.453Z,25.20
2018-08-03T21:31:40.293Z,25.10
2018-08-03T21:34:12.100Z,25.00
2018-08-03T21:36:43.720Z,25.00
2018-08-03T21:39:15.496Z,25.00
2018-08-03T21:41:47.314Z,24.90
2018-08-03T21:44:18.993Z,24.90
2018-08-03T21:46:50.736Z,24.80
2018-08-03T21:49:22.601Z,24.70
2018-08-03T21:51:54.374Z,24.70
2018-08-03T21:54:26.140Z,24.50
2018-08-03T21:56:57.981Z,24.50
2018-08-03T21:59:29.809Z,24.40
2018-08-03T22:02:01.675Z,24.40
2018-08-03T22:04:33.452Z,24.30
2018-08-03T22:07:05.273Z,24.40
2018-08-03T22:09:36.977Z,24.30
2018-08-03T22:12:09.156Z,24.30
2018-08-03T22:14:40.817Z,24.30
2018-08-03T22:17:12.593Z,24.20
2018-08-03T22:19:44.413Z,24.10
2018-08-03T22:22:16.113Z,24.10
2018-08-03T22:24:47.889Z,24.10
2018-08-03T22:27:19.693Z,24.00
2018-08-03T22:29:51.389Z,23.90
2018-08-03T22:32:23.142Z,23.90
2018-08-03T22:34:54.916Z,23.90
2018-08-03T22:37:26.790Z,23.90
2018-08-03T22:39:58.627Z,23.90
2018-08-03T22:42:30.462Z,23.90
2018-08-03T22:45:02.441Z,24.00
2018-08-03T22:47:34.163Z,24.00
2018-08-03T22:50:06.071Z,24.00
2018-08-03T22:52:37.836Z,24.00
2018-08-03T22:55:09.553Z,24.00
2018-08-03T22:57:41.284Z,24.10
2018-08-03T23:00:13.277Z,24.00
2018-08-03T23:02:44.969Z,24.00
2018-08-03T23:05:16.618Z,24.00
2018-08-03T23:07:48.593Z,24.00
2018-08-03T23:10:20.472Z,24.00
2018-08-03T23:12:52.373Z,24.10
2018-08-03T23:15:24.075Z,24.20
2018-08-03T23:17:55.901Z,24.30
2018-08-03T23:20:27.590Z,24.40
2018-08-03T23:22:59.454Z,24.50
2018-08-03T23:25:31.283Z,24.50
2018-08-03T23:28:03.140Z,24.50
2018-08-03T23:30:34.953Z,24.60
2018-08-03T23:33:06.706Z,24.60
2018-08-03T23:35:38.525Z,24.60
2018-08-03T23:38:10.350Z,24.50
2018-08-03T23:40:42.070Z,24.50
2018-08-03T23:43:13.798Z,24.50
2018-08-03T23:45:45.465Z,24.50
2018-08-03T23:48:17.137Z,24.50
2018-08-03T23:50:48.922Z,24.50
2018-08-03T23:53:20.619Z,24.50
2018-08-03T23:55:52.502Z,24.50
2018-08-03T23:58:24.244Z,24.50
